Главная страница
METAR-TAF:

METAR-TAF

Аэропорты :

Куусамо, Финляндия

широта: 65-58N, долгота: 029-11E, высота над уровнем моря: 262 м

Текущие метеонаблюдения

Эта сводка был подготовлена 29 минут назад, в 11:50 UTC
Ветер 5 Узел от восточный
Температура -5°C
Влажность 86%
Давление 998 hPa
Видимость 10 км и более
Сплошная облачность на высоте 1100 фута
небольшие ливневые снегопады

METAR: EFKS 151150Z 10005KT 9999 -SHSN OVC011 M05/M07 Q0998

Время: 14:19 (12:19 UTC)

Прогноз

Эта сводка был подготовлена 3 часа и 46 минут назад, в 08:33 UTC
Прогноз действительный с 15-го 09 UTC до 15-го 13 UTC
Ветер 8 Узел от юго-восточный
Видимость 10 км и более
Сплошная облачность на высоте 1300 фута
временами
С 15-го 09 UTC до 15-го 13 UTC
Видимость: 7000 м
Рассеянная облачность на высоте 800 фута
небольшой снег

TAF: EFKS 150833Z 1509/1513 13008KT 9999 OVC013 TEMPO 1509/1513 7000 -SN BKN008

Метеонаблюдения и прогнозы для более 4000 аэропортов (сводки METAR и TAF).

Имеющиеся станции представлены на карте желтыми и красными точками.

Чтобы увидеть название станции, наведите на нее мышь.

Затем щелкните, чтобы увидеть метеонаблюдения и метеопрогнозы.

Управление картой: чтобы увеличить масштаб, щелкните зеленые кнопки с черным крестиком; чтобы уменьшить масштаб, щелкните зеленую кнопку с тире; для просмотра соседних карт щелкайте зеленые стрелки.


METAR-TAF: